createdAt,value
2018-06-25T00:00:45.347Z,101355.58
2018-06-25T00:03:13.095Z,101351.19
2018-06-25T00:05:41.423Z,101349.80
2018-06-25T00:08:10.323Z,101351.97
2018-06-25T00:10:38.086Z,101350.56
2018-06-25T00:13:06.987Z,101349.84
2018-06-25T00:15:35.311Z,101346.88
2018-06-25T00:18:03.634Z,101349.73
2018-06-25T00:20:31.970Z,101344.44
2018-06-25T00:23:00.289Z,101343.45
2018-06-25T00:25:28.040Z,101343.38
2018-06-25T00:27:56.941Z,101339.27
2018-06-25T00:30:25.267Z,101337.84
2018-06-25T00:32:53.000Z,101336.88
2018-06-25T00:35:21.903Z,101333.92
2018-06-25T00:37:50.218Z,101336.95
2018-06-25T00:40:18.541Z,101338.38
2018-06-25T00:42:46.289Z,101341.37
2018-06-25T00:45:15.198Z,101338.42
2018-06-25T00:47:43.514Z,101335.08
2018-06-25T00:50:11.841Z,101339.13
2018-06-25T00:52:40.174Z,101338.80
2018-06-25T00:55:08.500Z,101334.23
2018-06-25T00:57:37.760Z,101331.67
2018-06-25T01:00:06.085Z,101331.53
2018-06-25T01:02:34.408Z,101326.67
2018-06-25T01:05:02.732Z,101325.87
2018-06-25T01:07:30.534Z,101319.02
2018-06-25T01:09:59.748Z,101319.14
2018-06-25T01:12:27.867Z,101322.30
2018-06-25T01:14:55.610Z,101322.25
2018-06-25T01:17:24.508Z,101323.34
2018-06-25T01:19:52.284Z,101325.80
2018-06-25T01:22:21.177Z,101324.70
2018-06-25T01:24:48.949Z,101324.94
2018-06-25T01:27:17.278Z,101327.02
2018-06-25T01:29:46.182Z,101323.01
2018-06-25T01:32:14.506Z,101326.36
2018-06-25T01:34:42.855Z,101319.48
2018-06-25T01:37:11.170Z,101325.00
2018-06-25T01:39:39.493Z,101323.84
2018-06-25T01:42:07.822Z,101325.49
2018-06-25T01:44:36.134Z,101326.19
2018-06-25T01:47:04.468Z,101325.00
2018-06-25T01:49:32.787Z,101331.19
2018-06-25T01:52:00.523Z,101330.45
2018-06-25T01:54:28.847Z,101331.38
2018-06-25T01:56:57.166Z,101330.95
2018-06-25T01:59:26.123Z,101335.48
2018-06-25T02:01:54.444Z,101340.38
2018-06-25T02:04:22.202Z,101339.47
2018-06-25T02:06:50.541Z,101342.05
2018-06-25T02:09:19.433Z,101346.84
2018-06-25T02:11:47.164Z,101341.84
2018-06-25T02:14:16.067Z,101340.34
2018-06-25T02:16:44.387Z,101346.72
2018-06-25T02:19:12.711Z,101343.89
2018-06-25T02:21:41.024Z,101339.66
2018-06-25T02:24:09.350Z,101342.22
2018-06-25T02:26:37.089Z,101346.80
2018-06-25T02:29:05.475Z,101339.56
2018-06-25T02:31:34.368Z,101336.73
2018-06-25T02:34:02.694Z,101337.59
2018-06-25T02:36:31.025Z,101337.72
2018-06-25T02:38:59.348Z,101345.27
2018-06-25T02:41:27.669Z,101348.58
2018-06-25T02:43:55.417Z,101355.93
2018-06-25T02:46:24.329Z,101356.78
2018-06-25T02:48:52.660Z,101347.38
2018-06-25T02:51:20.988Z,101345.25
2018-06-25T02:53:49.313Z,101335.94
2018-06-25T02:56:17.645Z,101333.42
2018-06-25T02:58:45.973Z,101336.08
2018-06-25T03:01:14.350Z,101326.77
2018-06-25T03:03:42.679Z,101327.16
2018-06-25T03:06:10.419Z,101335.27
2018-06-25T03:08:39.320Z,101339.14
2018-06-25T03:11:07.638Z,101338.30
2018-06-25T03:13:35.970Z,101333.31
2018-06-25T03:16:04.292Z,101328.67
2018-06-25T03:18:32.621Z,101326.66
2018-06-25T03:21:00.950Z,101331.07
2018-06-25T03:23:29.273Z,101331.83
2018-06-25T03:25:57.015Z,101346.55
2018-06-25T03:28:25.915Z,101331.13
2018-06-25T03:30:53.669Z,101335.41
2018-06-25T03:33:22.574Z,101332.64
2018-06-25T03:35:50.894Z,101333.51
2018-06-25T03:38:19.216Z,101334.61
2018-06-25T03:40:47.545Z,101338.63
2018-06-25T03:43:15.941Z,101337.37
2018-06-25T03:45:44.201Z,101342.88
2018-06-25T03:48:12.576Z,101340.92
2018-06-25T03:50:40.851Z,101340.60
2018-06-25T03:53:08.592Z,101337.01
2018-06-25T03:55:36.910Z,101337.63
2018-06-25T03:58:05.228Z,101330.55
2018-06-25T04:00:34.797Z,101326.47
2018-06-25T04:03:03.172Z,101319.77
2018-06-25T04:05:31.536Z,101321.45
2018-06-25T04:07:59.829Z,101316.81
2018-06-25T04:10:28.167Z,101311.84
2018-06-25T04:12:56.483Z,101308.71
2018-06-25T04:15:24.808Z,101310.95
2018-06-25T04:17:52.585Z,101310.78
2018-06-25T04:20:21.479Z,101315.23
2018-06-25T04:22:49.983Z,101308.22
2018-06-25T04:25:18.680Z,101298.72
2018-06-25T04:27:46.452Z,101296.73
2018-06-25T04:30:15.308Z,101299.48
2018-06-25T04:32:43.065Z,101305.33
2018-06-25T04:35:11.380Z,101300.14
2018-06-25T04:37:40.285Z,101301.73
2018-06-25T04:40:08.624Z,101304.16
2018-06-25T04:42:37.161Z,101307.88
2018-06-25T04:45:04.924Z,101303.80
2018-06-25T04:47:33.818Z,101307.19
2018-06-25T04:50:01.556Z,101308.73
2018-06-25T04:52:30.465Z,101307.29
2018-06-25T04:54:58.198Z,101310.16
2018-06-25T04:57:27.098Z,101309.98
2018-06-25T04:59:55.417Z,101314.77
2018-06-25T05:02:23.895Z,101319.30
2018-06-25T05:04:51.690Z,101326.19
2018-06-25T05:07:20.013Z,101326.40
2018-06-25T05:09:48.910Z,101323.27
2018-06-25T05:12:17.227Z,101323.04
2018-06-25T05:14:45.872Z,101320.69
2018-06-25T05:17:14.190Z,101326.73
2018-06-25T05:19:42.508Z,101328.00
2018-06-25T05:22:10.240Z,101337.77
2018-06-25T05:24:39.182Z,101338.68
2018-06-25T05:27:06.926Z,101339.30
2018-06-25T05:29:35.828Z,101348.49
2018-06-25T05:32:04.157Z,101347.05
2018-06-25T05:34:32.477Z,101349.17
2018-06-25T05:37:00.801Z,101344.52
2018-06-25T05:39:29.468Z,101345.77
2018-06-25T05:41:57.950Z,101347.52
2018-06-25T05:44:26.269Z,101349.14
2018-06-25T05:46:54.588Z,101352.99
2018-06-25T05:49:23.286Z,101352.27
2018-06-25T05:51:51.624Z,101348.31
2018-06-25T05:54:20.879Z,101352.59
2018-06-25T05:56:49.209Z,101347.31
2018-06-25T05:59:17.540Z,101347.16
2018-06-25T06:01:45.268Z,101340.64
2018-06-25T06:04:13.595Z,101342.25
2018-06-25T06:06:42.573Z,101341.38
2018-06-25T06:09:10.314Z,101339.80
2018-06-25T06:11:39.223Z,101348.50
2018-06-25T06:14:07.534Z,101347.77
2018-06-25T06:16:35.857Z,101352.10
2018-06-25T06:19:04.183Z,101351.94
2018-06-25T06:21:31.924Z,101352.47
2018-06-25T06:24:00.259Z,101347.63
2018-06-25T06:26:28.638Z,101344.97
2018-06-25T06:28:56.900Z,101349.91
2018-06-25T06:31:25.800Z,101356.02
2018-06-25T06:33:54.121Z,101359.63
2018-06-25T06:36:22.435Z,101360.53
2018-06-25T06:38:51.230Z,101371.55
2018-06-25T06:41:19.425Z,101366.54
2018-06-25T06:43:48.319Z,101365.45
2018-06-25T06:46:16.630Z,101365.48
2018-06-25T06:48:44.954Z,101361.91
2018-06-25T06:51:13.270Z,101359.05
2018-06-25T06:53:41.584Z,101357.31
2018-06-25T06:56:09.919Z,101360.91
2018-06-25T06:58:38.253Z,101362.69
2018-06-25T07:01:06.593Z,101368.13
2018-06-25T07:03:34.912Z,101371.14
2018-06-25T07:06:02.677Z,101372.84
2018-06-25T07:08:31.024Z,101367.73
2018-06-25T07:10:59.942Z,101364.66
2018-06-25T07:13:28.246Z,101364.09
2018-06-25T07:15:56.574Z,101364.55
2018-06-25T07:18:24.904Z,101371.23
2018-06-25T07:20:53.284Z,101371.33
2018-06-25T07:23:21.567Z,101376.45
2018-06-25T07:25:49.890Z,101378.12
2018-06-25T07:28:18.213Z,101374.32
2018-06-25T07:30:46.542Z,101368.75
2018-06-25T07:33:14.864Z,101377.05
2018-06-25T07:35:43.184Z,101376.37
2018-06-25T07:38:11.518Z,101376.52
2018-06-25T07:40:39.860Z,101378.21
2018-06-25T07:43:07.602Z,101375.80
2018-06-25T07:45:36.489Z,101378.00
2018-06-25T07:48:05.157Z,101380.79
2018-06-25T07:50:33.479Z,101375.16
2018-06-25T07:53:01.802Z,101378.45
2018-06-25T07:55:30.130Z,101381.30
2018-06-25T07:57:58.443Z,101383.64
2018-06-25T08:00:26.789Z,101382.72
2018-06-25T08:02:55.100Z,101382.58
2018-06-25T08:05:22.856Z,101385.84
2018-06-25T08:07:51.745Z,101397.71
2018-06-25T08:10:20.170Z,101392.95
2018-06-25T08:12:48.480Z,101399.11
2018-06-25T08:15:17.257Z,101401.13
2018-06-25T08:17:44.997Z,101405.91
2018-06-25T08:20:14.220Z,101407.98
2018-06-25T08:22:42.536Z,101406.61
2018-06-25T08:25:11.202Z,101406.87
2018-06-25T08:27:39.002Z,101409.31
2018-06-25T08:30:07.902Z,101413.88
2018-06-25T08:32:36.186Z,101420.27
2018-06-25T08:35:04.513Z,101420.14
2018-06-25T08:37:32.843Z,101429.20
2018-06-25T08:40:00.598Z,101432.77
2018-06-25T08:42:29.502Z,101430.63
2018-06-25T08:44:57.244Z,101435.12
2018-06-25T08:47:26.371Z,101431.24
2018-06-25T08:49:54.498Z,101436.80
2018-06-25T08:52:23.179Z,101434.60
2018-06-25T08:54:53.018Z,101438.95
2018-06-25T08:57:21.337Z,101445.11
2018-06-25T08:59:49.680Z,101438.70
2018-06-25T09:02:17.725Z,101439.11
2018-06-25T09:04:46.630Z,101442.61
2018-06-25T09:07:14.949Z,101445.80
2018-06-25T09:09:42.747Z,101441.86
2018-06-25T09:12:11.669Z,101444.38
2018-06-25T09:14:39.985Z,101441.55
2018-06-25T09:17:08.309Z,101440.84
2018-06-25T09:19:36.632Z,101443.33
2018-06-25T09:22:05.261Z,101443.92
2018-06-25T09:24:33.298Z,101447.02
2018-06-25T09:27:02.446Z,101452.25
2018-06-25T09:29:30.770Z,101456.36
2018-06-25T09:31:59.095Z,101457.41
2018-06-25T09:34:27.429Z,101458.58
2018-06-25T09:36:55.764Z,101464.83
2018-06-25T09:39:23.501Z,101463.34
2018-06-25T09:41:52.711Z,101465.16
2018-06-25T09:44:21.042Z,101469.22
2018-06-25T09:46:49.377Z,101465.30
2018-06-25T09:49:17.712Z,101477.26
2018-06-25T09:51:46.035Z,101477.59
2018-06-25T09:54:13.771Z,101478.83
2018-06-25T09:56:42.669Z,101473.52
2018-06-25T09:59:11.000Z,101471.35
2018-06-25T10:01:39.314Z,101473.82
2018-06-25T10:04:07.629Z,101477.87
2018-06-25T10:06:35.951Z,101480.28
2018-06-25T10:09:04.270Z,101481.28
2018-06-25T10:11:32.610Z,101484.81
2018-06-25T10:14:01.018Z,101487.06
2018-06-25T10:16:29.353Z,101490.75
2018-06-25T10:18:57.682Z,101490.89
2018-06-25T10:21:26.081Z,101489.73
2018-06-25T10:23:54.336Z,101487.77
2018-06-25T10:26:23.653Z,101491.63
2018-06-25T10:28:51.975Z,101498.39
2018-06-25T10:31:19.713Z,101499.34
2018-06-25T10:33:48.037Z,101505.25
2018-06-25T10:36:16.365Z,101500.96
2018-06-25T10:38:45.264Z,101509.46
2018-06-25T10:41:13.597Z,101508.84
2018-06-25T10:43:41.922Z,101508.80
2018-06-25T10:46:09.672Z,101511.55
2018-06-25T10:48:38.582Z,101507.93
2018-06-25T10:51:06.323Z,101509.09
2018-06-25T10:53:35.224Z,101514.30
2018-06-25T10:56:04.109Z,101511.70
2018-06-25T10:58:31.855Z,101516.28
2018-06-25T11:01:00.761Z,101518.50
2018-06-25T11:03:29.070Z,101521.08
2018-06-25T11:05:56.881Z,101521.23
2018-06-25T11:08:26.008Z,101524.43
2018-06-25T11:10:54.117Z,101521.50
2018-06-25T11:13:22.429Z,101524.68
2018-06-25T11:15:50.755Z,101523.06
2018-06-25T11:18:19.092Z,101523.63
2018-06-25T11:20:47.420Z,101527.51
2018-06-25T11:23:15.745Z,101526.14
2018-06-25T11:25:44.079Z,101524.16
2018-06-25T11:28:12.408Z,101527.75
2018-06-25T11:30:40.731Z,101529.78
2018-06-25T11:33:09.425Z,101535.08
2018-06-25T11:35:37.738Z,101539.70
2018-06-25T11:38:06.077Z,101541.45
2018-06-25T11:40:34.419Z,101546.08
2018-06-25T11:43:02.733Z,101545.73
2018-06-25T11:45:30.470Z,101547.37
2018-06-25T11:47:59.380Z,101541.78
2018-06-25T11:50:27.702Z,101542.88
2018-06-25T11:52:55.482Z,101552.50
2018-06-25T11:55:24.383Z,101549.78
2018-06-25T11:57:52.711Z,101551.24
2018-06-25T12:00:21.038Z,101554.70
2018-06-25T12:02:49.473Z,101554.67
2018-06-25T12:05:17.120Z,101559.87
2018-06-25T12:07:45.504Z,101564.24
2018-06-25T12:10:14.350Z,101570.14
2018-06-25T12:12:42.688Z,101573.84
2018-06-25T12:15:11.036Z,101574.08
2018-06-25T12:17:39.412Z,101574.95
2018-06-25T12:20:07.753Z,101574.95
2018-06-25T12:22:35.901Z,101571.70
2018-06-25T12:25:04.390Z,101579.14
2018-06-25T12:27:32.735Z,101576.70
2018-06-25T12:30:00.506Z,101579.09
2018-06-25T12:32:29.841Z,101578.22
2018-06-25T12:34:58.200Z,101571.66
2018-06-25T12:37:25.956Z,101586.73
2018-06-25T12:39:54.862Z,101590.09
2018-06-25T12:42:23.175Z,101582.30
2018-06-25T12:44:51.521Z,101581.36
2018-06-25T12:47:19.883Z,101586.68
2018-06-25T12:49:47.622Z,101590.55
2018-06-25T12:52:16.947Z,101597.77
2018-06-25T12:54:44.460Z,101598.03
2018-06-25T12:57:12.884Z,101601.63
2018-06-25T12:59:41.709Z,101604.88
2018-06-25T13:02:09.451Z,101605.47
2018-06-25T13:04:37.784Z,101605.91
2018-06-25T13:07:06.682Z,101617.50
2018-06-25T13:09:40.373Z,101616.56
2018-06-25T13:12:09.247Z,101615.19
2018-06-25T13:14:37.591Z,101609.72
2018-06-25T13:17:05.329Z,101602.06
2018-06-25T13:19:33.693Z,101604.92
2018-06-25T13:22:02.616Z,101597.25
2018-06-25T13:24:30.935Z,101599.81
2018-06-25T13:26:59.487Z,101600.75
2018-06-25T13:29:27.614Z,101598.55
2018-06-25T13:31:55.930Z,101605.70
2018-06-25T13:34:23.670Z,101606.52
2018-06-25T13:36:52.589Z,101604.28
2018-06-25T13:39:20.958Z,101605.73
2018-06-25T13:41:48.705Z,101612.61
2018-06-25T13:44:17.668Z,101610.77
2018-06-25T13:46:45.450Z,101606.59
2018-06-25T13:49:14.352Z,101611.48
2018-06-25T13:51:42.898Z,101613.09
2018-06-25T13:54:11.253Z,101599.75
2018-06-25T13:56:39.333Z,101603.44
2018-06-25T13:59:07.076Z,101606.91
2018-06-25T14:01:35.981Z,101609.24
2018-06-25T14:04:05.453Z,101609.63
2018-06-25T14:06:36.491Z,101612.32
2018-06-25T14:09:01.799Z,101616.59
2018-06-25T14:11:30.119Z,101609.00
2018-06-25T14:13:57.857Z,101614.23
2018-06-25T14:16:26.818Z,101611.01
2018-06-25T14:18:56.550Z,101605.59
2018-06-25T14:21:30.230Z,101611.19
2018-06-25T14:24:01.349Z,101608.47
2018-06-25T14:26:31.256Z,101609.39
2018-06-25T14:29:00.619Z,101611.78
2018-06-25T14:34:13.898Z,101608.55
2018-06-25T14:36:49.838Z,101601.98
2018-06-25T14:39:23.492Z,101606.13
2018-06-25T14:41:52.733Z,101599.24
2018-06-25T14:44:20.135Z,101594.92
2018-06-25T14:46:53.578Z,101603.84
2018-06-25T14:49:23.004Z,101617.06
2018-06-25T14:51:50.995Z,101611.72
2018-06-25T14:54:19.337Z,101615.07
2018-06-25T14:56:48.485Z,101605.66
2018-06-25T14:59:16.248Z,101608.64
2018-06-25T15:01:45.359Z,101613.63
2018-06-25T15:04:12.872Z,101613.05
2018-06-25T15:06:41.794Z,101613.55
2018-06-25T15:09:10.114Z,101617.59
2018-06-25T15:11:38.450Z,101612.25
2018-06-25T15:14:07.003Z,101618.86
2018-06-25T15:16:36.784Z,101615.23
2018-06-25T15:19:05.095Z,101616.62
2018-06-25T15:21:33.370Z,101618.31
2018-06-25T15:24:01.860Z,101617.52
2018-06-25T15:26:30.178Z,101614.59
2018-06-25T15:28:58.493Z,101610.72
2018-06-25T15:31:26.866Z,101609.84
2018-06-25T15:33:55.182Z,101616.94
2018-06-25T15:36:23.508Z,101607.97
2018-06-25T15:38:51.266Z,101607.28
2018-06-25T15:41:20.267Z,101606.18
2018-06-25T15:43:48.580Z,101602.89
2018-06-25T15:46:16.911Z,101604.25
2018-06-25T15:48:45.234Z,101610.05
2018-06-25T15:51:12.979Z,101607.42
2018-06-25T15:53:42.160Z,101611.89
2018-06-25T15:56:09.627Z,101615.46
2018-06-25T15:58:38.631Z,101614.46
2018-06-25T16:01:07.011Z,101615.72
2018-06-25T16:03:35.341Z,101614.66
2018-06-25T16:06:04.295Z,101619.55
2018-06-25T16:08:31.423Z,101624.47
2018-06-25T16:11:00.339Z,101624.84
2018-06-25T16:13:28.105Z,101631.08
2018-06-25T16:15:57.028Z,101632.48
2018-06-25T16:18:24.951Z,101637.19
2018-06-25T16:20:53.865Z,101633.61
2018-06-25T16:23:22.189Z,101630.59
2018-06-25T16:25:51.266Z,101634.95
2018-06-25T16:28:20.168Z,101635.73
2018-06-25T16:30:48.470Z,101640.08
2018-06-25T16:33:16.805Z,101634.08
2018-06-25T16:35:45.123Z,101645.84
2018-06-25T16:38:13.450Z,101645.48
2018-06-25T16:40:41.834Z,101650.02
2018-06-25T16:43:10.107Z,101651.53
2018-06-25T16:45:38.443Z,101651.72
2018-06-25T16:48:13.975Z,101654.46
2018-06-25T16:50:42.286Z,101645.59
2018-06-25T16:53:10.611Z,101659.69
2018-06-25T16:55:38.950Z,101662.83
2018-06-25T16:58:07.279Z,101664.42
2018-06-25T17:00:35.593Z,101666.38
2018-06-25T17:03:03.336Z,101668.00
2018-06-25T17:05:32.238Z,101680.50
2018-06-25T17:08:00.563Z,101679.62
2018-06-25T17:10:28.306Z,101686.16
2018-06-25T17:12:57.204Z,101679.36
2018-06-25T17:15:29.656Z,101685.94
2018-06-25T17:17:59.532Z,101679.63
2018-06-25T17:20:25.941Z,101688.55
2018-06-25T17:22:54.516Z,101687.52
2018-06-25T17:25:23.366Z,101687.11
2018-06-25T17:27:53.735Z,101691.03
2018-06-25T17:30:20.229Z,101695.30
2018-06-25T17:32:48.536Z,101698.34
2018-06-25T17:35:17.795Z,101694.75
2018-06-25T17:37:46.183Z,101694.19
2018-06-25T17:40:16.972Z,101693.46
2018-06-25T17:42:46.626Z,101692.84
2018-06-25T17:45:13.953Z,101695.94
2018-06-25T17:47:42.531Z,101694.66
2018-06-25T17:50:11.112Z,101691.20
2018-06-25T17:52:39.699Z,101696.92
2018-06-25T17:55:08.022Z,101693.33
2018-06-25T17:57:35.804Z,101694.92
2018-06-25T18:00:05.697Z,101696.97
2018-06-25T18:02:33.112Z,101699.73
2018-06-25T18:05:02.318Z,101697.39
2018-06-25T18:07:30.438Z,101696.22
2018-06-25T18:10:00.491Z,101698.65
2018-06-25T18:12:27.743Z,101696.14
2018-06-25T18:14:56.747Z,101701.67
2018-06-25T18:17:26.897Z,101698.69
2018-06-25T18:19:58.711Z,101694.22
2018-06-25T18:22:37.254Z,101693.13
2018-06-25T18:24:59.573Z,101696.61
2018-06-25T18:27:29.621Z,101693.16
2018-06-25T18:29:59.553Z,101698.91
2018-06-25T18:32:29.391Z,101698.34
2018-06-25T18:34:57.121Z,101703.58
2018-06-25T18:37:26.978Z,101708.44
2018-06-25T18:39:55.711Z,101705.98
2018-06-25T18:42:22.671Z,101711.45
2018-06-25T18:44:53.713Z,101708.25
2018-06-25T18:47:19.375Z,101709.52
2018-06-25T18:49:48.300Z,101710.23
2018-06-25T18:52:16.479Z,101718.48
2018-06-25T18:54:44.877Z,101720.95
2018-06-25T18:57:13.265Z,101726.06
2018-06-25T18:59:43.262Z,101732.86
2018-06-25T19:02:11.940Z,101739.50
2018-06-25T19:04:42.887Z,101740.39
2018-06-25T19:07:10.202Z,101743.59
2018-06-25T19:09:38.324Z,101741.59
2018-06-25T19:12:06.685Z,101746.77
2018-06-25T19:14:35.477Z,101745.13
2018-06-25T19:17:04.312Z,101753.95
2018-06-25T19:19:32.664Z,101755.06
2018-06-25T19:22:01.504Z,101754.09
2018-06-25T19:24:30.142Z,101757.91
2018-06-25T19:26:59.785Z,101760.02
2018-06-25T19:29:26.413Z,101763.20
2018-06-25T19:31:55.675Z,101758.48
2018-06-25T19:34:24.694Z,101759.45
2018-06-25T19:36:53.061Z,101761.80
2018-06-25T19:39:22.565Z,101762.02
2018-06-25T19:41:50.861Z,101766.59
2018-06-25T19:44:23.113Z,101770.44
2018-06-25T19:46:47.566Z,101775.38
2018-06-25T19:49:18.881Z,101775.67
2018-06-25T19:51:46.487Z,101771.66
2018-06-25T19:54:15.773Z,101773.06
2018-06-25T19:56:44.226Z,101771.73
2018-06-25T19:59:12.396Z,101770.38
2018-06-25T20:01:41.049Z,101771.53
2018-06-25T20:04:09.716Z,101768.47
2018-06-25T20:06:38.654Z,101767.37
2018-06-25T20:09:06.878Z,101769.03
2018-06-25T20:11:35.330Z,101769.63
2018-06-25T20:14:03.659Z,101770.36
2018-06-25T20:16:32.028Z,101769.66
2018-06-25T20:19:04.201Z,101767.89
2018-06-25T20:21:30.420Z,101772.31
2018-06-25T20:24:00.840Z,101777.41
2018-06-25T20:26:28.493Z,101774.91
2018-06-25T20:28:58.571Z,101773.78
2018-06-25T20:31:28.666Z,101774.88
2018-06-25T20:34:06.780Z,101779.41
2018-06-25T20:36:38.052Z,101782.00
2018-06-25T20:39:03.438Z,101785.81
2018-06-25T20:41:33.875Z,101789.87
2018-06-25T20:44:04.562Z,101789.26
2018-06-25T20:46:43.489Z,101792.89
2018-06-25T20:49:06.608Z,101791.05
2018-06-25T20:51:46.444Z,101790.05
2018-06-25T20:54:15.979Z,101791.16
2018-06-25T20:56:59.854Z,101798.72
2018-06-25T20:59:39.393Z,101796.73
2018-06-25T21:02:08.198Z,101797.09
2018-06-25T21:04:40.803Z,101798.55
2018-06-25T21:07:16.402Z,101798.34
2018-06-25T21:09:53.492Z,101797.33
2018-06-25T21:12:32.840Z,101799.83
2018-06-25T21:15:22.653Z,101800.52
2018-06-25T21:17:27.765Z,101804.26
2018-06-25T21:19:56.097Z,101797.11
2018-06-25T21:22:25.179Z,101798.53
2018-06-25T21:24:54.666Z,101804.31
2018-06-25T21:27:22.637Z,101801.48
2018-06-25T21:29:51.545Z,101804.90
2018-06-25T21:32:19.907Z,101806.39
2018-06-25T21:34:51.317Z,101808.23
2018-06-25T21:37:16.752Z,101810.53
2018-06-25T21:39:45.285Z,101805.57
2018-06-25T21:42:13.513Z,101806.37
2018-06-25T21:44:41.946Z,101803.66
2018-06-25T21:47:14.676Z,101799.87
2018-06-25T21:49:43.544Z,101802.38
2018-06-25T21:52:12.158Z,101801.61
2018-06-25T21:54:40.947Z,101804.13
2018-06-25T21:57:09.486Z,101804.01
2018-06-25T21:59:37.743Z,101800.28
2018-06-25T22:02:05.969Z,101799.16
2018-06-25T22:04:33.717Z,101800.58
2018-06-25T22:07:02.618Z,101800.36
2018-06-25T22:09:30.425Z,101801.05
2018-06-25T22:11:59.827Z,101802.63
2018-06-25T22:14:29.259Z,101798.72
2018-06-25T22:16:57.471Z,101798.42
2018-06-25T22:19:26.740Z,101796.45
2018-06-25T22:21:57.966Z,101796.50
2018-06-25T22:24:27.253Z,101798.46
2018-06-25T22:26:55.584Z,101794.91
2018-06-25T22:29:23.880Z,101799.67
2018-06-25T22:31:52.267Z,101793.80
2018-06-25T22:34:20.637Z,101790.02
2018-06-25T22:36:49.133Z,101794.88
2018-06-25T22:39:16.872Z,101791.39
2018-06-25T22:41:45.772Z,101795.39
2018-06-25T22:44:14.135Z,101790.14
2018-06-25T22:46:42.517Z,101793.92
2018-06-25T22:49:10.846Z,101784.75
2018-06-25T22:51:39.188Z,101790.80
2018-06-25T22:54:07.506Z,101785.53
2018-06-25T22:56:35.821Z,101779.45
2018-06-25T22:59:04.241Z,101777.29
2018-06-25T23:01:31.998Z,101773.73
2018-06-25T23:04:00.899Z,101783.47
2018-06-25T23:06:29.228Z,101780.56
2018-06-25T23:08:57.552Z,101778.73
2018-06-25T23:11:26.624Z,101787.99
2018-06-25T23:13:54.245Z,101780.04
2018-06-25T23:16:22.706Z,101780.16
2018-06-25T23:18:51.030Z,101782.40
2018-06-25T23:21:19.373Z,101777.97
2018-06-25T23:23:47.126Z,101778.20
2018-06-25T23:26:16.030Z,101783.20
2018-06-25T23:28:43.801Z,101780.88
2018-06-25T23:31:12.136Z,101786.59
2018-06-25T23:33:40.441Z,101785.00
2018-06-25T23:36:09.340Z,101785.20
2018-06-25T23:38:37.654Z,101783.06
2018-06-25T23:41:05.977Z,101787.91
2018-06-25T23:43:33.721Z,101785.79
2018-06-25T23:46:02.633Z,101785.09
2018-06-25T23:48:30.954Z,101785.59
2018-06-25T23:51:00.039Z,101789.22
2018-06-25T23:53:28.366Z,101788.09
2018-06-25T23:55:56.693Z,101790.81
2018-06-25T23:58:25.015Z,101797.06
